Time;durP1;ratioP1;P1;durP2;ratioP2;P2;SDS_P1;SDS_P2;PMS_P1;PMS_P2;Temp;Humidity;BMP_temperature;BMP_pressure;BME280_temperature;BME280_humidity;BME280_pressure;Samples;Min_cycle;Max_cycle;Signal;HPM_P1;HPM_P2
2022/10/23 08:07:56;;;;;;;0;0;;;;;;;0;0;0;;;;
2022/10/23 08:08:56;;;;;;;0;0;;;;;;;0;0;0;;;;
2022/10/23 08:09:57;;;;;;;0;0;;;;;;;0;0;0;;;;
2022/10/23 08:10:57;;;;;;;0;0;;;;;;;0;0;0;;;;
2022/10/23 08:11:58;;;;;;;0;0;;;;;;;0;0;0;;;;
2022/10/23 08:12:58;;;;;;;0;0;;;;;;;0;0;0;;;;
2022/10/23 08:14:01;;;;;;;0;0;;;;;;;0;0;0;;;;
2022/10/23 08:15:03;;;;;;;0;0;;;;;;;0;0;0;;;;
2022/10/23 08:16:05;;;;;;;0;0;;;;;;;0;0;0;;;;
2022/10/23 08:17:08;;;;;;;0;0;;;;;;;0;0;0;;;;
2022/10/23 08:18:08;;;;;;;0;0;;;;;;;0;0;0;;;;
2022/10/23 08:19:09;;;;;;;0;0;;;;;;;0;0;0;;;;
2022/10/23 08:20:12;;;;;;;0;0;;;;;;;0;0;0;;;;
2022/10/23 08:21:13;;;;;;;0;0;;;;;;;0;0;0;;;;
2022/10/23 08:22:13;;;;;;;0;0;;;;;;;0;0;0;;;;
2022/10/23 08:23:15;;;;;;;0;0;;;;;;;0;0;0;;;;
2022/10/23 08:24:17;;;;;;;0;0;;;;;;;0;0;0;;;;
2022/10/23 08:25:18;;;;;;;0;0;;;;;;;0;0;0;;;;
2022/10/23 08:26:18;;;;;;;0;0;;;;;;;0;0;0;;;;
2022/10/23 08:27:19;;;;;;;0;0;;;;;;;0;0;0;;;;
2022/10/23 08:28:20;;;;;;;0;0;;;;;;;0;0;0;;;;
2022/10/23 08:29:20;;;;;;;0;0;;;;;;;0;0;0;;;;
2022/10/23 08:30:21;;;;;;;0;0;;;;;;;0;0;0;;;;
2022/10/23 08:31:21;;;;;;;0;0;;;;;;;0;0;0;;;;
2022/10/23 08:32:22;;;;;;;0;0;;;;;;;0;0;0;;;;
2022/10/23 08:33:22;;;;;;;0;0;;;;;;;0;0;0;;;;
2022/10/23 08:34:23;;;;;;;0;0;;;;;;;0;0;0;;;;
2022/10/23 08:35:24;;;;;;;0;0;;;;;;;0;0;0;;;;
2022/10/23 08:36:24;;;;;;;0;0;;;;;;;0;0;0;;;;
2022/10/23 08:37:26;;;;;;;0;0;;;;;;;0;0;0;;;;
2022/10/23 08:38:27;;;;;;;0;0;;;;;;;0;0;0;;;;
2022/10/23 08:39:28;;;;;;;0;0;;;;;;;0;0;0;;;;
2022/10/23 08:40:28;;;;;;;0;0;;;;;;;0;0;0;;;;
2022/10/23 08:41:28;;;;;;;0;0;;;;;;;0;0;0;;;;
2022/10/23 08:42:32;;;;;;;0;0;;;;;;;0;0;0;;;;
2022/10/23 08:43:37;;;;;;;0;0;;;;;;;0;0;0;;;;
2022/10/23 08:44:44;;;;;;;0;0;;;;;;;0;0;0;;;;
2022/10/23 08:45:54;;;;;;;0;0;;;;;;;0;0;0;;;;
2022/10/23 08:46:59;;;;;;;0;0;;;;;;;0;0;0;;;;
2022/10/23 08:48:04;;;;;;;0;0;;;;;;;0;0;0;;;;
2022/10/23 08:49:15;;;;;;;0;0;;;;;;;0;0;0;;;;
2022/10/23 08:50:27;;;;;;;0;0;;;;;;;0;0;0;;;;
2022/10/23 08:51:33;;;;;;;0;0;;;;;;;0;0;0;;;;
2022/10/23 08:52:39;;;;;;;0;0;;;;;;;0;0;0;;;;
2022/10/23 08:53:46;;;;;;;0;0;;;;;;;0;0;0;;;;
2022/10/23 08:54:52;;;;;;;0;0;;;;;;;0;0;0;;;;
2022/10/23 08:56:02;;;;;;;0;0;;;;;;;0;0;0;;;;
2022/10/23 08:57:08;;;;;;;0;0;;;;;;;0;0;0;;;;
2022/10/23 08:58:14;;;;;;;0;0;;;;;;;0;0;0;;;;
2022/10/23 08:59:23;;;;;;;0;0;;;;;;;0;0;0;;;;
2022/10/23 09:00:27;;;;;;;0;0;;;;;;;0;0;0;;;;
2022/10/23 09:01:29;;;;;;;0;0;;;;;;;0;0;0;;;;
2022/10/23 09:02:36;;;;;;;0;0;;;;;;;0;0;0;;;;
2022/10/23 09:03:41;;;;;;;0;0;;;;;;;0;0;0;;;;
2022/10/23 09:04:42;;;;;;;0;0;;;;;;;0;0;0;;;;
2022/10/23 09:05:46;;;;;;;0;0;;;;;;;0;0;0;;;;
2022/10/23 09:07:00;;;;;;;0;0;;;;;;;0;0;0;;;;
2022/10/23 09:08:15;;;;;;;0;0;;;;;;;0;0;0;;;;
2022/10/23 09:09:29;;;;;;;0;0;;;;;;;0;0;0;;;;
2022/10/23 09:10:49;;;;;;;0;0;;;;;;;0;0;0;;;;
2022/10/23 09:12:00;;;;;;;0;0;;;;;;;0;0;0;;;;
2022/10/23 09:13:06;;;;;;;0;0;;;;;;;0;0;0;;;;
2022/10/23 09:14:26;;;;;;;0;0;;;;;;;0;0;0;;;;
2022/10/23 09:15:39;;;;;;;0;0;;;;;;;0;0;0;;;;
2022/10/23 09:16:46;;;;;;;0;0;;;;;;;0;0;0;;;;
2022/10/23 09:17:58;;;;;;;0;0;;;;;;;0;0;0;;;;
2022/10/23 09:19:06;;;;;;;0;0;;;;;;;0;0;0;;;;
2022/10/23 09:20:11;;;;;;;0;0;;;;;;;0;0;0;;;;
2022/10/23 09:21:17;;;;;;;0;0;;;;;;;0;0;0;;;;
2022/10/23 09:22:18;;;;;;;0;0;;;;;;;0;0;0;;;;
2022/10/23 09:38:19;;;;;;;1.3;0.25;;;;;;;28.78;71.67871;95298.72;;;;
2022/10/23 09:39:26;;;;;;;1.3;0.25;;;;;;;28.78;71.67871;95298.72;;;;
2022/10/23 09:40:32;;;;;;;1.3;0.25;;;;;;;28.78;71.67871;95298.72;;;;
2022/10/23 09:41:40;;;;;;;1.3;0.25;;;;;;;28.78;71.67871;95298.72;;;;
2022/10/23 09:42:42;;;;;;;1.3;0.25;;;;;;;28.78;71.67871;95298.72;;;;
2022/10/23 09:43:53;;;;;;;1.3;0.25;;;;;;;28.78;71.67871;95298.72;;;;
2022/10/23 09:45:19;;;;;;;1.3;0.25;;;;;;;28.78;71.67871;95298.72;;;;
2022/10/23 09:46:22;;;;;;;1.3;0.25;;;;;;;28.78;71.67871;95298.72;;;;
2022/10/23 09:47:23;;;;;;;1.3;0.25;;;;;;;28.78;71.67871;95298.72;;;;
2022/10/23 09:48:24;;;;;;;1.3;0.25;;;;;;;28.78;71.67871;95298.72;;;;
2022/10/23 09:49:26;;;;;;;0.7;0.1;;;;;;;32.99;65.31348;95281.37;;;;
2022/10/23 09:50:28;;;;;;;0.7;0.1;;;;;;;32.99;65.31348;95281.37;;;;
2022/10/23 09:51:29;;;;;;;0.7;0.1;;;;;;;32.99;65.31348;95281.37;;;;
2022/10/23 09:52:29;;;;;;;0.7;0.1;;;;;;;32.99;65.31348;95281.37;;;;
2022/10/23 09:53:34;;;;;;;0.7;0.1;;;;;;;32.99;65.31348;95281.37;;;;
2022/10/23 09:54:38;;;;;;;0.7;0.1;;;;;;;32.99;65.31348;95281.37;;;;
2022/10/23 09:55:45;;;;;;;0.7;0.1;;;;;;;32.99;65.31348;95281.37;;;;
2022/10/23 09:56:51;;;;;;;0.7;0.1;;;;;;;32.99;65.31348;95281.37;;;;
2022/10/23 09:57:53;;;;;;;0.7;0.1;;;;;;;32.99;65.31348;95281.37;;;;
2022/10/23 09:58:54;;;;;;;0.7;0.1;;;;;;;32.99;65.31348;95281.37;;;;
2022/10/23 09:59:57;;;;;;;0.15;0.1;;;;;;;36.72;59.29492;95252.61;;;;
2022/10/23 10:01:01;;;;;;;0.15;0.1;;;;;;;36.72;59.29492;95252.61;;;;
2022/10/23 10:02:03;;;;;;;0.15;0.1;;;;;;;36.72;59.29492;95252.61;;;;
2022/10/23 10:03:20;;;;;;;0.15;0.1;;;;;;;36.72;59.29492;95252.61;;;;
2022/10/23 10:04:23;;;;;;;0.15;0.1;;;;;;;36.72;59.29492;95252.61;;;;
2022/10/23 10:05:32;;;;;;;0.15;0.1;;;;;;;36.72;59.29492;95252.61;;;;
2022/10/23 10:06:35;;;;;;;0.15;0.1;;;;;;;36.72;59.29492;95252.61;;;;
2022/10/23 10:07:36;;;;;;;0.15;0.1;;;;;;;36.72;59.29492;95252.61;;;;
2022/10/23 10:08:37;;;;;;;0.15;0.1;;;;;;;36.72;59.29492;95252.61;;;;
2022/10/23 10:09:42;;;;;;;0.15;0.1;;;;;;;36.72;59.29492;95252.61;;;;
2022/10/23 10:10:42;;;;;;;0.2;0.2;;;;;;;39.23;55.89355;95250.11;;;;
2022/10/23 10:11:48;;;;;;;0.2;0.2;;;;;;;39.23;55.89355;95250.11;;;;
2022/10/23 10:12:54;;;;;;;0.2;0.2;;;;;;;39.23;55.89355;95250.11;;;;
2022/10/23 10:14:00;;;;;;;0.2;0.2;;;;;;;39.23;55.89355;95250.11;;;;
2022/10/23 10:15:22;;;;;;;0.2;0.2;;;;;;;39.23;55.89355;95250.11;;;;
2022/10/23 10:16:29;;;;;;;0.2;0.2;;;;;;;39.23;55.89355;95250.11;;;;
2022/10/23 10:17:40;;;;;;;0.2;0.2;;;;;;;39.23;55.89355;95250.11;;;;
2022/10/23 10:18:50;;;;;;;0.2;0.2;;;;;;;39.23;55.89355;95250.11;;;;
2022/10/23 10:20:01;;;;;;;0.2;0.2;;;;;;;39.23;55.89355;95250.11;;;;
2022/10/23 10:21:17;;;;;;;0.2;0.2;;;;;;;39.23;55.89355;95250.11;;;;
2022/10/23 10:22:21;;;;;;;0.2;0.2;;;;;;;39.23;55.89355;95250.11;;;;
2022/10/23 10:23:32;;;;;;;0.2;0.2;;;;;;;39.23;55.89355;95250.11;;;;
2022/10/23 10:24:42;;;;;;;0.2;0.2;;;;;;;39.23;55.89355;95250.11;;;;
2022/10/23 10:25:51;;;;;;;0.2;0.2;;;;;;;39.23;55.89355;95250.11;;;;
2022/10/23 10:27:01;;;;;;;0.2;0.2;;;;;;;39.23;55.89355;95250.11;;;;
2022/10/23 10:28:13;;;;;;;0.2;0.2;;;;;;;39.23;55.89355;95250.11;;;;
2022/10/23 10:29:29;;;;;;;0.2;0.2;;;;;;;39.23;55.89355;95250.11;;;;
2022/10/23 10:30:45;;;;;;;0.2;0.2;;;;;;;39.23;55.89355;95250.11;;;;
2022/10/23 10:31:53;;;;;;;0.6;0.5;;;;;;;41.34;53.5957;95225.75;;;;
2022/10/23 10:33:04;;;;;;;0.6;0.5;;;;;;;41.34;53.5957;95225.75;;;;
2022/10/23 10:34:14;;;;;;;0.6;0.5;;;;;;;41.34;53.5957;95225.75;;;;
2022/10/23 10:35:21;;;;;;;0.6;0.5;;;;;;;41.34;53.5957;95225.75;;;;
2022/10/23 10:36:32;;;;;;;0.6;0.5;;;;;;;41.34;53.5957;95225.75;;;;
2022/10/23 10:37:45;;;;;;;0.6;0.5;;;;;;;41.34;53.5957;95225.75;;;;
2022/10/23 10:39:02;;;;;;;0.6;0.5;;;;;;;41.34;53.5957;95225.75;;;;
2022/10/23 10:40:10;;;;;;;0.6;0.5;;;;;;;41.34;53.5957;95225.75;;;;
2022/10/23 10:41:21;;;;;;;0.6;0.5;;;;;;;41.34;53.5957;95225.75;;;;
2022/10/23 10:42:34;;;;;;;0.5;0.5;;;;;;;41.81;54.18457;95203.68;;;;
2022/10/23 10:43:48;;;;;;;0.5;0.5;;;;;;;41.81;54.18457;95203.68;;;;
2022/10/23 10:45:00;;;;;;;0.5;0.5;;;;;;;41.81;54.18457;95203.68;;;;
2022/10/23 10:46:13;;;;;;;0.5;0.5;;;;;;;41.81;54.18457;95203.68;;;;
2022/10/23 10:47:23;;;;;;;0.5;0.5;;;;;;;41.81;54.18457;95203.68;;;;
2022/10/23 10:48:32;;;;;;;0.5;0.5;;;;;;;41.81;54.18457;95203.68;;;;
2022/10/23 10:49:42;;;;;;;0.5;0.5;;;;;;;41.81;54.18457;95203.68;;;;
2022/10/23 10:50:49;;;;;;;0.5;0.5;;;;;;;41.81;54.18457;95203.68;;;;
2022/10/23 10:51:56;;;;;;;0.5;0.5;;;;;;;41.81;54.18457;95203.68;;;;
2022/10/23 10:53:06;;;;;;;0.5;0.5;;;;;;;41.81;54.18457;95203.68;;;;
2022/10/23 10:54:15;;;;;;;0.9;0.9;;;;;;;40.67;55.93848;95183.59;;;;
2022/10/23 10:55:29;;;;;;;0.9;0.9;;;;;;;40.67;55.93848;95183.59;;;;
2022/10/23 10:56:32;;;;;;;0.9;0.9;;;;;;;40.67;55.93848;95183.59;;;;
2022/10/23 10:57:37;;;;;;;0.9;0.9;;;;;;;40.67;55.93848;95183.59;;;;
2022/10/23 10:58:41;;;;;;;0.9;0.9;;;;;;;40.67;55.93848;95183.59;;;;
2022/10/23 10:59:47;;;;;;;0.9;0.9;;;;;;;40.67;55.93848;95183.59;;;;
2022/10/23 11:00:50;;;;;;;0.9;0.9;;;;;;;40.67;55.93848;95183.59;;;;
2022/10/23 11:01:55;;;;;;;0.9;0.9;;;;;;;40.67;55.93848;95183.59;;;;
2022/10/23 11:03:01;;;;;;;0.9;0.9;;;;;;;40.67;55.93848;95183.59;;;;
2022/10/23 11:04:16;;;;;;;0.9;0.75;;;;;;;38.59;59.5;95177.32;;;;
2022/10/23 11:05:25;;;;;;;0.9;0.75;;;;;;;38.59;59.5;95177.32;;;;
2022/10/23 11:06:30;;;;;;;0.9;0.75;;;;;;;38.59;59.5;95177.32;;;;
2022/10/23 11:07:36;;;;;;;0.9;0.75;;;;;;;38.59;59.5;95177.32;;;;
2022/10/23 11:08:41;;;;;;;0.9;0.75;;;;;;;38.59;59.5;95177.32;;;;
2022/10/23 11:09:42;;;;;;;0.9;0.75;;;;;;;38.59;59.5;95177.32;;;;
2022/10/23 11:10:42;;;;;;;0.9;0.75;;;;;;;38.59;59.5;95177.32;;;;
2022/10/23 11:11:46;;;;;;;0.9;0.75;;;;;;;38.59;59.5;95177.32;;;;
2022/10/23 11:12:47;;;;;;;0.9;0.75;;;;;;;38.59;59.5;95177.32;;;;
2022/10/23 11:13:49;;;;;;;0.9;0.75;;;;;;;38.59;59.5;95177.32;;;;
2022/10/23 11:14:50;;;;;;;1.8;1.1;;;;;;;35.78;63.6543;95166.52;;;;
2022/10/23 11:15:53;;;;;;;1.8;1.1;;;;;;;35.78;63.6543;95166.52;;;;
2022/10/23 11:16:59;;;;;;;1.8;1.1;;;;;;;35.78;63.6543;95166.52;;;;
2022/10/23 11:18:07;;;;;;;1.8;1.1;;;;;;;35.78;63.6543;95166.52;;;;
2022/10/23 11:19:18;;;;;;;1.8;1.1;;;;;;;35.78;63.6543;95166.52;;;;
2022/10/23 11:20:24;;;;;;;1.8;1.1;;;;;;;35.78;63.6543;95166.52;;;;
2022/10/23 11:21:36;;;;;;;1.8;1.1;;;;;;;35.78;63.6543;95166.52;;;;
2022/10/23 11:22:42;;;;;;;1.8;1.1;;;;;;;35.78;63.6543;95166.52;;;;
2022/10/23 11:23:53;;;;;;;1.8;1.1;;;;;;;35.78;63.6543;95166.52;;;;
2022/10/23 11:29:12;;;;;;;1.1;0.7;;;;;;;33.57;69.96094;95158.96;;;;
2022/10/23 11:31:29;;;;;;;1.1;0.7;;;;;;;33.57;69.96094;95158.96;;;;
2022/10/23 11:32:38;;;;;;;1.1;0.7;;;;;;;33.57;69.96094;95158.96;;;;
2022/10/23 11:34:24;;;;;;;1.1;0.7;;;;;;;33.57;69.96094;95158.96;;;;
2022/10/23 11:35:42;;;;;;;1.1;0.7;;;;;;;33.57;69.96094;95158.96;;;;
2022/10/23 11:36:52;;;;;;;0.5;0.5;;;;;;;32;73.74414;95160.77;;;;
2022/10/23 11:37:55;;;;;;;0.5;0.5;;;;;;;32;73.74414;95160.77;;;;
2022/10/23 11:38:58;;;;;;;0.5;0.5;;;;;;;32;73.74414;95160.77;;;;
2022/10/23 11:40:15;;;;;;;0.5;0.5;;;;;;;32;73.74414;95160.77;;;;
2022/10/23 11:41:22;;;;;;;0.5;0.5;;;;;;;32;73.74414;95160.77;;;;
2022/10/23 11:42:25;;;;;;;0.5;0.5;;;;;;;32;73.74414;95160.77;;;;
2022/10/23 11:43:32;;;;;;;0.5;0.5;;;;;;;32;73.74414;95160.77;;;;
2022/10/23 11:44:45;;;;;;;0.5;0.5;;;;;;;32;73.74414;95160.77;;;;
2022/10/23 11:45:47;;;;;;;0.5;0.5;;;;;;;32;73.74414;95160.77;;;;
2022/10/23 11:46:47;;;;;;;0.6;0.45;;;;;;;31.21;75.88379;95148.69;;;;
2022/10/23 11:47:59;;;;;;;0.6;0.45;;;;;;;31.21;75.88379;95148.69;;;;
2022/10/23 11:49:04;;;;;;;0.6;0.45;;;;;;;31.21;75.88379;95148.69;;;;
2022/10/23 11:50:19;;;;;;;0.6;0.45;;;;;;;31.21;75.88379;95148.69;;;;
2022/10/23 11:51:26;;;;;;;0.6;0.45;;;;;;;31.21;75.88379;95148.69;;;;
2022/10/23 11:52:29;;;;;;;0.6;0.45;;;;;;;31.21;75.88379;95148.69;;;;
2022/10/23 11:53:30;;;;;;;0.6;0.45;;;;;;;31.21;75.88379;95148.69;;;;
2022/10/23 11:54:39;;;;;;;0.6;0.45;;;;;;;31.21;75.88379;95148.69;;;;
2022/10/23 11:55:40;;;;;;;0.6;0.45;;;;;;;31.21;75.88379;95148.69;;;;
2022/10/23 11:56:57;;;;;;;0.6;0.45;;;;;;;31.21;75.88379;95148.69;;;;
2022/10/23 11:58:11;;;;;;;0.5;0.5;;;;;;;30.94;76.98828;95132.07;;;;
2022/10/23 11:59:21;;;;;;;0.5;0.5;;;;;;;30.94;76.98828;95132.07;;;;
2022/10/23 12:00:26;;;;;;;0.5;0.5;;;;;;;30.94;76.98828;95132.07;;;;
2022/10/23 12:01:30;;;;;;;0.5;0.5;;;;;;;30.94;76.98828;95132.07;;;;
2022/10/23 12:02:36;;;;;;;0.5;0.5;;;;;;;30.94;76.98828;95132.07;;;;
2022/10/23 12:03:41;;;;;;;0.5;0.5;;;;;;;30.94;76.98828;95132.07;;;;
2022/10/23 12:04:50;;;;;;;0.5;0.5;;;;;;;30.94;76.98828;95132.07;;;;
2022/10/23 12:05:53;;;;;;;0.5;0.5;;;;;;;30.94;76.98828;95132.07;;;;
2022/10/23 12:06:59;;;;;;;0.5;0.5;;;;;;;30.94;76.98828;95132.07;;;;
2022/10/23 12:08:12;;;;;;;1.3;0.4;;;;;;;31.32;76.375;95126.59;;;;
2022/10/23 12:09:21;;;;;;;1.3;0.4;;;;;;;31.32;76.375;95126.59;;;;
2022/10/23 12:10:27;;;;;;;1.3;0.4;;;;;;;31.32;76.375;95126.59;;;;
2022/10/23 12:11:32;;;;;;;1.3;0.4;;;;;;;31.32;76.375;95126.59;;;;
2022/10/23 12:12:43;;;;;;;1.3;0.4;;;;;;;31.32;76.375;95126.59;;;;
2022/10/23 12:13:55;;;;;;;1.3;0.4;;;;;;;31.32;76.375;95126.59;;;;
2022/10/23 12:14:55;;;;;;;1.3;0.4;;;;;;;31.32;76.375;95126.59;;;;
2022/10/23 12:16:07;;;;;;;1.3;0.4;;;;;;;31.32;76.375;95126.59;;;;
2022/10/23 12:17:08;;;;;;;1.3;0.4;;;;;;;31.32;76.375;95126.59;;;;
2022/10/23 12:18:28;;;;;;;1.3;0.4;;;;;;;31.32;76.375;95126.59;;;;
2022/10/23 12:19:29;;;;;;;1.3;0.4;;;;;;;31.32;76.375;95126.59;;;;
2022/10/23 12:20:47;;;;;;;1.3;0.4;;;;;;;31.32;76.375;95126.59;;;;
2022/10/23 12:21:51;;;;;;;1.3;0.4;;;;;;;31.32;76.375;95126.59;;;;
2022/10/23 12:22:54;;;;;;;1.3;0.4;;;;;;;31.32;76.375;95126.59;;;;
2022/10/23 12:24:12;;;;;;;1.3;0.4;;;;;;;31.32;76.375;95126.59;;;;
2022/10/23 12:25:28;;;;;;;1.3;0.4;;;;;;;31.32;76.375;95126.59;;;;
2022/10/23 12:26:40;;;;;;;1.3;0.4;;;;;;;31.32;76.375;95126.59;;;;
2022/10/23 12:27:47;;;;;;;1.3;0.4;;;;;;;31.32;76.375;95126.59;;;;
2022/10/23 12:28:54;;;;;;;1.3;0.4;;;;;;;31.32;76.375;95126.59;;;;
2022/10/23 12:30:03;;;;;;;0.4;0.3;;;;;;;31.75;75.38672;95098.52;;;;
2022/10/23 12:31:19;;;;;;;0.4;0.3;;;;;;;31.75;75.38672;95098.52;;;;
2022/10/23 12:32:32;;;;;;;0.4;0.3;;;;;;;31.75;75.38672;95098.52;;;;
2022/10/23 12:33:45;;;;;;;0.4;0.3;;;;;;;31.75;75.38672;95098.52;;;;
2022/10/23 12:34:53;;;;;;;0.4;0.3;;;;;;;31.75;75.38672;95098.52;;;;
2022/10/23 12:36:14;;;;;;;0.4;0.3;;;;;;;31.75;75.38672;95098.52;;;;
2022/10/23 12:37:37;;;;;;;0.4;0.3;;;;;;;31.75;75.38672;95098.52;;;;
2022/10/23 12:38:57;;;;;;;0.4;0.3;;;;;;;31.75;75.38672;95098.52;;;;
2022/10/23 12:39:57;;;;;;;0.4;0.3;;;;;;;31.75;75.38672;95098.52;;;;
2022/10/23 12:40:58;;;;;;;0.4;0.3;;;;;;;31.75;75.38672;95098.52;;;;
2022/10/23 12:42:05;;;;;;;0.4;0.3;;;;;;;31.75;75.38672;95098.52;;;;
2022/10/23 12:43:14;;;;;;;0.4;0.3;;;;;;;31.75;75.38672;95098.52;;;;
2022/10/23 12:44:24;;;;;;;0.4;0.3;;;;;;;31.75;75.38672;95098.52;;;;
2022/10/23 12:45:25;;;;;;;0.4;0.3;;;;;;;31.75;75.38672;95098.52;;;;
2022/10/23 12:46:28;;;;;;;0.4;0.3;;;;;;;31.75;75.38672;95098.52;;;;
2022/10/23 12:47:33;;;;;;;0.4;0.3;;;;;;;31.75;75.38672;95098.52;;;;
2022/10/23 12:48:34;;;;;;;0.4;0.3;;;;;;;31.75;75.38672;95098.52;;;;
2022/10/23 12:49:34;;;;;;;0.4;0.3;;;;;;;31.75;75.38672;95098.52;;;;
2022/10/23 12:50:35;;;;;;;1.4;0.7;;;;;;;28.48;79.50781;95087.41;;;;
2022/10/23 12:51:36;;;;;;;1.4;0.7;;;;;;;28.48;79.50781;95087.41;;;;
2022/10/23 12:52:38;;;;;;;1.4;0.7;;;;;;;28.48;79.50781;95087.41;;;;
2022/10/23 12:53:38;;;;;;;1.4;0.7;;;;;;;28.48;79.50781;95087.41;;;;
2022/10/23 12:54:39;;;;;;;1.4;0.7;;;;;;;28.48;79.50781;95087.41;;;;
2022/10/23 12:55:40;;;;;;;1.4;0.7;;;;;;;28.48;79.50781;95087.41;;;;
2022/10/23 12:56:48;;;;;;;1.4;0.7;;;;;;;28.48;79.50781;95087.41;;;;
2022/10/23 12:57:49;;;;;;;1.4;0.7;;;;;;;28.48;79.50781;95087.41;;;;
2022/10/23 12:58:50;;;;;;;1.4;0.7;;;;;;;28.48;79.50781;95087.41;;;;
2022/10/23 12:59:53;;;;;;;1.4;0.7;;;;;;;28.48;79.50781;95087.41;;;;
2022/10/23 13:00:57;;;;;;;1.4;0.7;;;;;;;28.48;79.50781;95087.41;;;;
2022/10/23 13:02:00;;;;;;;0.45;0.4;;;;;;;28.12;82.02344;95087.66;;;;
2022/10/23 13:03:00;;;;;;;0.45;0.4;;;;;;;28.12;82.02344;95087.66;;;;
2022/10/23 13:04:03;;;;;;;0.45;0.4;;;;;;;28.12;82.02344;95087.66;;;;
2022/10/23 13:05:12;;;;;;;0.45;0.4;;;;;;;28.12;82.02344;95087.66;;;;
2022/10/23 13:06:16;;;;;;;0.45;0.4;;;;;;;28.12;82.02344;95087.66;;;;
2022/10/23 13:07:17;;;;;;;0.45;0.4;;;;;;;28.12;82.02344;95087.66;;;;
2022/10/23 13:08:20;;;;;;;0.45;0.4;;;;;;;28.12;82.02344;95087.66;;;;
2022/10/23 13:09:22;;;;;;;0.45;0.4;;;;;;;28.12;82.02344;95087.66;;;;
2022/10/23 13:10:26;;;;;;;0.45;0.4;;;;;;;28.12;82.02344;95087.66;;;;
2022/10/23 13:11:28;;;;;;;0.45;0.4;;;;;;;28.12;82.02344;95087.66;;;;
2022/10/23 13:12:30;;;;;;;0.8;0.2;;;;;;;30.16;80.5957;95078.41;;;;
2022/10/23 13:13:33;;;;;;;0.8;0.2;;;;;;;30.16;80.5957;95078.41;;;;
2022/10/23 13:14:34;;;;;;;0.8;0.2;;;;;;;30.16;80.5957;95078.41;;;;
2022/10/23 13:15:37;;;;;;;0.8;0.2;;;;;;;30.16;80.5957;95078.41;;;;
2022/10/23 13:16:39;;;;;;;0.8;0.2;;;;;;;30.16;80.5957;95078.41;;;;
2022/10/23 13:17:40;;;;;;;0.8;0.2;;;;;;;30.16;80.5957;95078.41;;;;
2022/10/23 13:18:42;;;;;;;0.8;0.2;;;;;;;30.16;80.5957;95078.41;;;;
2022/10/23 13:19:43;;;;;;;0.8;0.2;;;;;;;30.16;80.5957;95078.41;;;;
2022/10/23 13:20:43;;;;;;;0.8;0.2;;;;;;;30.16;80.5957;95078.41;;;;
2022/10/23 13:21:56;;;;;;;0.8;0.2;;;;;;;30.16;80.5957;95078.41;;;;
2022/10/23 13:22:57;;;;;;;0.8;0.2;;;;;;;30.16;80.5957;95078.41;;;;
2022/10/23 13:24:06;;;;;;;0.8;0.2;;;;;;;30.16;80.5957;95078.41;;;;
2022/10/23 13:25:19;;;;;;;0.8;0.2;;;;;;;30.16;80.5957;95078.41;;;;
2022/10/23 13:26:21;;;;;;;0.8;0.2;;;;;;;30.16;80.5957;95078.41;;;;
2022/10/23 13:27:29;;;;;;;0.8;0.2;;;;;;;30.16;80.5957;95078.41;;;;
2022/10/23 13:28:32;;;;;;;0.8;0.2;;;;;;;30.16;80.5957;95078.41;;;;
2022/10/23 13:29:39;;;;;;;0.8;0.2;;;;;;;30.16;80.5957;95078.41;;;;
2022/10/23 13:30:41;;;;;;;0.8;0.2;;;;;;;30.16;80.5957;95078.41;;;;
2022/10/23 13:31:43;;;;;;;0.8;0.2;;;;;;;30.16;80.5957;95078.41;;;;
2022/10/23 13:32:44;;;;;;;0.8;0.2;;;;;;;30.16;80.5957;95078.41;;;;
2022/10/23 13:33:44;;;;;;;0.6;0.3;;;;;;;31.31;77.27539;95054.49;;;;
2022/10/23 13:34:47;;;;;;;0.6;0.3;;;;;;;31.31;77.27539;95054.49;;;;
2022/10/23 13:35:50;;;;;;;0.6;0.3;;;;;;;31.31;77.27539;95054.49;;;;
2022/10/23 13:36:56;;;;;;;0.6;0.3;;;;;;;31.31;77.27539;95054.49;;;;
2022/10/23 13:38:00;;;;;;;0.6;0.3;;;;;;;31.31;77.27539;95054.49;;;;
2022/10/23 13:39:07;;;;;;;0.6;0.3;;;;;;;31.31;77.27539;95054.49;;;;
2022/10/23 13:40:13;;;;;;;0.6;0.3;;;;;;;31.31;77.27539;95054.49;;;;
2022/10/23 13:41:21;;;;;;;0.6;0.3;;;;;;;31.31;77.27539;95054.49;;;;
2022/10/23 13:42:21;;;;;;;0.6;0.3;;;;;;;31.31;77.27539;95054.49;;;;
2022/10/23 13:43:22;;;;;;;0.6;0.3;;;;;;;31.31;77.27539;95054.49;;;;
2022/10/23 13:44:25;;;;;;;0.5;0.45;;;;;;;30.39;77.80762;95057.2;;;;
2022/10/23 13:45:25;;;;;;;0.5;0.45;;;;;;;30.39;77.80762;95057.2;;;;
2022/10/23 13:46:26;;;;;;;0.5;0.45;;;;;;;30.39;77.80762;95057.2;;;;
2022/10/23 13:47:27;;;;;;;0.5;0.45;;;;;;;30.39;77.80762;95057.2;;;;
2022/10/23 13:48:27;;;;;;;0.5;0.45;;;;;;;30.39;77.80762;95057.2;;;;
2022/10/23 13:49:28;;;;;;;0.5;0.45;;;;;;;30.39;77.80762;95057.2;;;;
2022/10/23 13:50:30;;;;;;;0.5;0.45;;;;;;;30.39;77.80762;95057.2;;;;
2022/10/23 13:51:30;;;;;;;0.5;0.45;;;;;;;30.39;77.80762;95057.2;;;;
2022/10/23 13:52:34;;;;;;;0.5;0.45;;;;;;;30.39;77.80762;95057.2;;;;
2022/10/23 13:53:34;;;;;;;0.5;0.45;;;;;;;30.39;77.80762;95057.2;;;;
2022/10/23 13:54:35;;;;;;;1.2;0.8;;;;;;;29.03;79.00879;95044.05;;;;
2022/10/23 13:55:37;;;;;;;1.2;0.8;;;;;;;29.03;79.00879;95044.05;;;;
2022/10/23 13:56:39;;;;;;;1.2;0.8;;;;;;;29.03;79.00879;95044.05;;;;
2022/10/23 13:57:40;;;;;;;1.2;0.8;;;;;;;29.03;79.00879;95044.05;;;;
2022/10/23 13:58:40;;;;;;;1.2;0.8;;;;;;;29.03;79.00879;95044.05;;;;
2022/10/23 13:59:41;;;;;;;1.2;0.8;;;;;;;29.03;79.00879;95044.05;;;;
2022/10/23 14:00:43;;;;;;;1.2;0.8;;;;;;;29.03;79.00879;95044.05;;;;
2022/10/23 14:01:46;;;;;;;1.2;0.8;;;;;;;29.03;79.00879;95044.05;;;;
2022/10/23 14:02:48;;;;;;;1.2;0.8;;;;;;;29.03;79.00879;95044.05;;;;
2022/10/23 14:03:49;;;;;;;1.2;0.8;;;;;;;29.03;79.00879;95044.05;;;;
2022/10/23 14:04:49;;;;;;;1.2;0.8;;;;;;;29.03;79.00879;95044.05;;;;
2022/10/23 14:05:50;;;;;;;0.7;0.7;;;;;;;27.94;80.77539;95052.95;;;;
2022/10/23 14:06:57;;;;;;;0.7;0.7;;;;;;;27.94;80.77539;95052.95;;;;
2022/10/23 14:07:57;;;;;;;0.7;0.7;;;;;;;27.94;80.77539;95052.95;;;;
2022/10/23 14:08:58;;;;;;;0.7;0.7;;;;;;;27.94;80.77539;95052.95;;;;
2022/10/23 14:09:58;;;;;;;0.7;0.7;;;;;;;27.94;80.77539;95052.95;;;;
2022/10/23 14:10:59;;;;;;;0.7;0.7;;;;;;;27.94;80.77539;95052.95;;;;
2022/10/23 14:11:59;;;;;;;0.7;0.7;;;;;;;27.94;80.77539;95052.95;;;;
2022/10/23 14:13:00;;;;;;;0.7;0.7;;;;;;;27.94;80.77539;95052.95;;;;
2022/10/23 14:14:00;;;;;;;0.7;0.7;;;;;;;27.94;80.77539;95052.95;;;;
2022/10/23 14:15:01;;;;;;;0.7;0.7;;;;;;;27.94;80.77539;95052.95;;;;
2022/10/23 14:16:01;;;;;;;1.2;0.8;;;;;;;27.41;81.50684;95054.38;;;;
2022/10/23 14:17:02;;;;;;;1.2;0.8;;;;;;;27.41;81.50684;95054.38;;;;
2022/10/23 14:18:02;;;;;;;1.2;0.8;;;;;;;27.41;81.50684;95054.38;;;;
2022/10/23 14:19:03;;;;;;;1.2;0.8;;;;;;;27.41;81.50684;95054.38;;;;
2022/10/23 14:20:03;;;;;;;1.2;0.8;;;;;;;27.41;81.50684;95054.38;;;;
2022/10/23 14:21:05;;;;;;;1.2;0.8;;;;;;;27.41;81.50684;95054.38;;;;
2022/10/23 14:22:07;;;;;;;1.2;0.8;;;;;;;27.41;81.50684;95054.38;;;;
2022/10/23 14:23:08;;;;;;;1.2;0.8;;;;;;;27.41;81.50684;95054.38;;;;
2022/10/23 14:24:08;;;;;;;1.2;0.8;;;;;;;27.41;81.50684;95054.38;;;;
2022/10/23 14:25:09;;;;;;;1.2;0.8;;;;;;;27.41;81.50684;95054.38;;;;
2022/10/23 14:26:09;;;;;;;1.2;0.8;;;;;;;27.41;81.50684;95054.38;;;;
2022/10/23 14:27:12;;;;;;;0.9;0.8;;;;;;;26.22;82.3291;95046.95;;;;
2022/10/23 14:28:12;;;;;;;0.9;0.8;;;;;;;26.22;82.3291;95046.95;;;;
2022/10/23 14:29:13;;;;;;;0.9;0.8;;;;;;;26.22;82.3291;95046.95;;;;
2022/10/23 14:30:13;;;;;;;0.9;0.8;;;;;;;26.22;82.3291;95046.95;;;;
2022/10/23 14:31:14;;;;;;;0.9;0.8;;;;;;;26.22;82.3291;95046.95;;;;
2022/10/23 14:32:16;;;;;;;0.9;0.8;;;;;;;26.22;82.3291;95046.95;;;;
2022/10/23 14:33:17;;;;;;;0.9;0.8;;;;;;;26.22;82.3291;95046.95;;;;
2022/10/23 14:34:17;;;;;;;0.9;0.8;;;;;;;26.22;82.3291;95046.95;;;;
2022/10/23 14:35:18;;;;;;;0.9;0.8;;;;;;;26.22;82.3291;95046.95;;;;
2022/10/23 14:36:18;;;;;;;0.9;0.8;;;;;;;26.22;82.3291;95046.95;;;;
2022/10/23 14:37:19;;;;;;;1.3;0.7;;;;;;;24.98;83.65527;95039.51;;;;
2022/10/23 14:38:20;;;;;;;1.3;0.7;;;;;;;24.98;83.65527;95039.51;;;;
2022/10/23 14:39:20;;;;;;;1.3;0.7;;;;;;;24.98;83.65527;95039.51;;;;
2022/10/23 14:40:21;;;;;;;1.3;0.7;;;;;;;24.98;83.65527;95039.51;;;;
2022/10/23 14:41:21;;;;;;;1.3;0.7;;;;;;;24.98;83.65527;95039.51;;;;
2022/10/23 14:42:22;;;;;;;1.3;0.7;;;;;;;24.98;83.65527;95039.51;;;;
2022/10/23 14:43:23;;;;;;;1.3;0.7;;;;;;;24.98;83.65527;95039.51;;;;
2022/10/23 14:44:24;;;;;;;1.3;0.7;;;;;;;24.98;83.65527;95039.51;;;;
2022/10/23 14:45:24;;;;;;;1.3;0.7;;;;;;;24.98;83.65527;95039.51;;;;
2022/10/23 14:46:26;;;;;;;1.3;0.7;;;;;;;24.98;83.65527;95039.51;;;;
2022/10/23 14:47:27;;;;;;;1.3;0.7;;;;;;;24.98;83.65527;95039.51;;;;
2022/10/23 14:48:27;;;;;;;1.7;1;;;;;;;24.02;84.78418;95041.82;;;;
2022/10/23 14:49:28;;;;;;;1.7;1;;;;;;;24.02;84.78418;95041.82;;;;
2022/10/23 14:50:29;;;;;;;1.7;1;;;;;;;24.02;84.78418;95041.82;;;;
2022/10/23 14:51:30;;;;;;;1.7;1;;;;;;;24.02;84.78418;95041.82;;;;
2022/10/23 14:52:30;;;;;;;1.7;1;;;;;;;24.02;84.78418;95041.82;;;;
2022/10/23 14:53:31;;;;;;;1.7;1;;;;;;;24.02;84.78418;95041.82;;;;
2022/10/23 14:54:33;;;;;;;1.7;1;;;;;;;24.02;84.78418;95041.82;;;;
2022/10/23 14:55:34;;;;;;;1.7;1;;;;;;;24.02;84.78418;95041.82;;;;
2022/10/23 14:56:35;;;;;;;1.7;1;;;;;;;24.02;84.78418;95041.82;;;;
2022/10/23 14:57:37;;;;;;;1.7;1;;;;;;;24.02;84.78418;95041.82;;;;
2022/10/23 14:58:38;;;;;;;2;1.2;;;;;;;23.23;85.77148;95047.19;;;;
2022/10/23 14:59:38;;;;;;;2;1.2;;;;;;;23.23;85.77148;95047.19;;;;
2022/10/23 15:00:39;;;;;;;2;1.2;;;;;;;23.23;85.77148;95047.19;;;;
2022/10/23 15:01:39;;;;;;;2;1.2;;;;;;;23.23;85.77148;95047.19;;;;
2022/10/23 15:02:42;;;;;;;2;1.2;;;;;;;23.23;85.77148;95047.19;;;;
2022/10/23 15:03:43;;;;;;;2;1.2;;;;;;;23.23;85.77148;95047.19;;;;
2022/10/23 15:04:43;;;;;;;2;1.2;;;;;;;23.23;85.77148;95047.19;;;;
2022/10/23 15:05:43;;;;;;;2;1.2;;;;;;;23.23;85.77148;95047.19;;;;
2022/10/23 15:06:45;;;;;;;2;1.2;;;;;;;23.23;85.77148;95047.19;;;;
2022/10/23 15:07:45;;;;;;;2;1.2;;;;;;;23.23;85.77148;95047.19;;;;
2022/10/23 15:08:46;;;;;;;2;1.2;;;;;;;23.23;85.77148;95047.19;;;;
2022/10/23 15:09:50;;;;;;;1.6;0.8;;;;;;;22.5;86.625;95038.33;;;;
2022/10/23 15:10:51;;;;;;;1.6;0.8;;;;;;;22.5;86.625;95038.33;;;;
2022/10/23 15:11:51;;;;;;;1.6;0.8;;;;;;;22.5;86.625;95038.33;;;;
2022/10/23 15:12:52;;;;;;;1.6;0.8;;;;;;;22.5;86.625;95038.33;;;;